Aeroporto :
LOGIN :

Iscrizione | Disclaimer

   EN    FR    IT 

 










Sommario :    VFR   VFR Marginale   IFR   IFR Intensivo   IFR Molto Intensivo
Visibilità : 
Base nubi : 
>= 8 km
>= 3000ft
5 / 8 km
1000 / 3000 ft
1500m / 5 km
500 / 1000 ft
800 / 1500m
200 / 500 ft
< 800m
< 200 ft
Simboli :   Temporali  Nebbia  Neve Forte  Precipitazioni Forti  Vento > 20 kt
SIGMETs :   Varie  Temporali  Ghiacco  Turbolenza  Onda orograficha  Ceneri Vulcaniche






- Altitudine del aeroporto : 821 ft
- Codice IATA : LYS


LFLL - Lyon St Exupéry / Satolas

ULTIMO METAR :
  • 191630Z 02006KT 350V060 9999 VCSH FEW033TCU SCT083 24/17 Q1018 TEMPO 36015G25KT SHRA

METARs OBSOLETI :
  • 191600Z 36004KT 320V040 9999 FEW033TCU SCT100 25/17 Q1018 TEMPO SHRA
  • 191530Z 02006KT 330V080 9999 FEW033 24/17 Q1018 TEMPO FEW030TCU
  • 191500Z 05004KT 340V100 9999 FEW033 24/16 Q1018 TEMPO FEW030TCU
  • 191430Z 07006KT 020V120 9999 FEW033TCU SCT100 23/17 Q1018 NOSIG
  • 191400Z 05005KT 010V100 9999 -SHRA FEW026TCU SCT046 BKN088 22/17 Q1018 NOSIG

TAF TAF LFLL
Valido dal 19 a 12 ore il 20 a 18 ore UTC


191100Z 1912/2018 35010KT 9999 SCT030
PROB40
TEMPO 1912/1918 33015G25KT 4000 SHRA SCT020TCU BKN035
BECMG 1919/1921 VRB03KT
PROB30
TEMPO 2002/2006 4000 BR
PROB40 2004/2009 BKN012
FM200900 35007KT 9999 BKN020
BECMG 2010/2012 SCT040



MetMap, La meteo Aeronautica in un colpo d'occhio ! - Copyright ORBIFLY Dicembre 2007 - Disclaimer

ORBIFLY MET'MAP TEAM :

Programmazione e sviluppo : Alexandra Zaïnal
Concezione : Baudouin d'Aumeries
Supporto tecnico e logistico : Manuel Goepfert
Aiuto : Marc-Olivier Méhu
Aiuto per la traduzione : Arnaldo La Scala




FONTI E CREDITI :

   NOAA